Time;durP1;ratioP1;P1;durP2;ratioP2;P2;SDS_P1;SDS_P2;PMS_P1;PMS_P2;Temp;Humidity;BMP_temperature;BMP_pressure;BME280_temperature;BME280_humidity;BME280_pressure;Samples;Min_cycle;Max_cycle;Signal;HPM_P1;HPM_P2
2022/04/11 08:53:42;;;;;;;12.23;3.70;;;;;;;19.11;49.05;101685.44;5072168;28;20394;-55
2022/04/11 08:56:08;;;;;;;11.50;3.50;;;;;;;19.03;48.07;101683.97;5072000;28;20036;-62
2022/04/11 08:58:33;;;;;;;8.52;2.90;;;;;;;18.98;46.10;101681.47;5071188;28;20032;-59
2022/04/11 09:01:01;;;;;;;5.97;2.47;;;;;;;18.95;44.91;101678.94;5072174;28;20082;-59
2022/04/11 09:03:27;;;;;;;7.35;3.10;;;;;;;18.92;45.12;101668.44;5071051;28;20021;-61
2022/04/11 09:06:22;;;;;;;6.90;2.33;;;;;;;18.87;45.64;101668.59;5071092;28;20409;-63
2022/04/11 09:08:53;;;;;;;9.43;2.63;;;;;;;18.86;45.16;101668.63;5062939;28;20043;-60
2022/04/11 09:11:29;;;;;;;6.45;2.50;;;;;;;18.82;44.99;101672.28;5059557;28;20021;-62
2022/04/11 09:13:57;;;;;;;4.60;2.08;;;;;;;18.80;43.69;101664.41;5050797;28;20033;-61
2022/04/11 09:16:23;;;;;;;5.32;1.75;;;;;;;18.79;43.71;101656.50;5050861;28;20021;-60
2022/04/11 09:18:49;;;;;;;9.32;2.33;;;;;;;18.80;43.21;101658.22;5051632;28;20032;-63
2022/04/11 09:21:15;;;;;;;5.25;2.28;;;;;;;18.75;44.05;101656.59;5051600;28;20029;-63
2022/04/11 09:23:40;;;;;;;5.45;1.90;;;;;;;18.75;43.14;101669.81;5050759;28;20075;-61
2022/04/11 09:26:22;;;;;;;5.00;1.98;;;;;;;18.71;42.52;101662.88;5070393;28;20028;-63
2022/04/11 09:29:03;;;;;;;5.60;2.10;;;;;;;18.70;42.69;101663.78;5071453;28;20021;-66
2022/04/11 09:31:29;;;;;;;5.22;1.70;;;;;;;18.68;42.34;101660.34;5066927;28;20017;-63
2022/04/11 09:33:55;;;;;;;5.53;2.05;;;;;;;18.66;41.42;101656.88;5050493;28;20029;-64
2022/04/11 09:36:20;;;;;;;3.67;1.80;;;;;;;18.67;41.14;101663.03;5067137;28;20021;-70
2022/04/11 09:39:01;;;;;;;3.38;1.85;;;;;;;18.66;41.36;101659.53;5050498;28;20029;-63
2022/04/11 09:41:30;;;;;;;4.82;1.40;;;;;;;18.63;41.37;101649.00;5067221;28;20021;-63
2022/04/11 09:43:56;;;;;;;4.95;1.80;;;;;;;18.58;40.74;101650.94;5071292;28;20040;-66
2022/04/11 09:46:21;;;;;;;5.75;1.65;;;;;;;18.60;40.75;101645.63;5071002;28;20024;-65
2022/04/11 09:48:46;;;;;;;4.03;1.85;;;;;;;18.69;43.09;101640.88;5070278;28;20020;-59
2022/04/11 09:51:15;;;;;;;5.80;1.70;;;;;;;18.86;43.48;101639.47;5087099;28;20412;-59
2022/04/11 09:53:41;;;;;;;3.80;1.33;;;;;;;18.97;43.82;101642.66;5070119;28;20094;-58
2022/04/11 09:56:08;;;;;;;4.93;1.63;;;;;;;19.01;43.20;101638.09;5070748;28;20033;-58
2022/04/11 09:58:37;;;;;;;5.32;1.77;;;;;;;19.02;43.98;101637.19;5069970;28;20071;-58
2022/04/11 10:01:03;;;;;;;3.17;1.40;;;;;;;19.04;44.12;101638.00;5069740;28;20029;-56
2022/04/11 10:03:29;;;;;;;6.18;1.83;;;;;;;19.01;44.06;101631.03;5066336;28;20048;-55
2022/04/11 10:05:54;;;;;;;5.40;1.70;;;;;;;19.02;44.48;101632.75;5057549;28;20025;-53
2022/04/11 10:08:24;;;;;;;4.07;1.55;;;;;;;19.04;44.76;101633.56;5056699;28;20101;-53
2022/04/11 10:10:55;;;;;;;3.88;1.67;;;;;;;19.03;44.52;101636.25;5056513;28;20036;-55
2022/04/11 10:13:20;;;;;;;3.50;1.70;;;;;;;19.03;44.61;101633.59;5057479;28;20051;-59
2022/04/11 10:15:51;;;;;;;2.92;1.40;;;;;;;19.04;45.12;101635.34;5057332;28;20029;-56
2022/04/11 10:18:21;;;;;;;3.28;1.80;;;;;;;19.07;45.04;101629.94;5057058;28;20082;-53
2022/04/11 10:20:50;;;;;;;4.35;1.40;;;;;;;19.04;45.62;101630.91;5055934;28;20017;-57
2022/04/11 10:23:24;;;;;;;7.53;1.92;;;;;;;19.04;45.39;101619.47;5057196;28;20029;-55
2022/04/11 10:25:50;;;;;;;2.95;1.30;;;;;;;19.08;45.66;101618.41;5057152;28;20017;-57
2022/04/11 10:28:25;;;;;;;3.33;1.42;;;;;;;19.09;45.46;101606.91;5057120;28;20040;-59
2022/04/11 10:31:05;;;;;;;7.25;2.00;;;;;;;19.08;45.89;101616.66;5056075;28;20163;-58
2022/04/11 10:33:42;;;;;;;4.38;1.50;;;;;;;19.11;45.60;101615.66;5056995;28;20332;-59
2022/04/11 10:36:38;;;;;;;6.22;1.42;;;;;;;19.14;45.86;101611.09;5057024;28;20461;-53
2022/04/11 10:39:13;;;;;;;2.30;1.48;;;;;;;19.12;45.40;101614.72;5056802;28;20053;-54
2022/04/11 10:41:56;;;;;;;5.80;1.88;;;;;;;19.08;45.93;101606.03;5056807;28;20025;-52
2022/04/11 10:44:35;;;;;;;4.55;1.50;;;;;;;19.07;46.01;101606.09;5056960;28;20075;-55
2022/04/11 10:47:09;;;;;;;4.30;1.70;;;;;;;19.09;46.34;101606.91;5055780;28;20028;-55
2022/04/11 10:49:58;;;;;;;3.80;1.20;;;;;;;19.06;46.32;101615.84;5056019;28;20036;-57
2022/04/11 10:52:31;;;;;;;2.15;1.30;;;;;;;19.07;46.35;101620.19;5056348;28;20028;-58
2022/04/11 10:54:57;;;;;;;3.47;1.50;;;;;;;19.08;46.37;101606.03;5057779;28;20040;-63
2022/04/11 10:57:39;;;;;;;3.28;1.60;;;;;;;19.10;46.11;101598.88;5055738;28;20028;-61
2022/04/11 11:00:13;;;;;;;4.68;1.50;;;;;;;19.09;46.25;101598.94;5055979;28;20025;-57
2022/04/11 11:02:51;;;;;;;4.07;1.60;;;;;;;19.13;46.52;101598.78;5041431;28;20112;-59
2022/04/11 11:05:39;;;;;;;4.03;1.50;;;;;;;19.13;46.54;101598.78;5036597;28;20021;-55
2022/04/11 11:08:10;;;;;;;4.03;1.30;;;;;;;19.13;46.56;101592.63;5036322;28;20021;-61
2022/04/11 11:10:44;;;;;;;3.47;1.33;;;;;;;19.12;46.59;101591.75;5036472;28;20033;-56
2022/04/11 11:13:34;;;;;;;3.10;1.50;;;;;;;19.10;46.83;101598.88;5035380;28;20104;-60
2022/04/11 11:16:10;;;;;;;4.63;1.60;;;;;;;19.06;46.63;101589.31;5035412;28;20029;-54
2022/04/11 11:18:51;;;;;;;4.40;1.58;;;;;;;19.07;46.72;101598.13;5036164;28;20032;-48
2022/04/11 11:21:31;;;;;;;5.93;1.52;;;;;;;19.07;46.54;101583.09;5036261;28;20029;-56
2022/04/11 11:24:12;;;;;;;3.70;1.40;;;;;;;19.13;46.61;101592.63;5036697;28;20032;-54
2022/04/11 11:26:48;;;;;;;4.40;1.45;;;;;;;19.11;46.53;101583.88;5035151;28;20028;-57
2022/04/11 11:29:13;;;;;;;2.55;1.50;;;;;;;19.09;47.21;101581.25;5036246;28;20036;-63
2022/04/11 11:31:39;;;;;;;3.80;1.70;;;;;;;19.09;46.70;101580.41;5035038;28;20022;-61
2022/04/11 11:34:05;;;;;;;3.53;1.38;;;;;;;19.15;47.01;101580.16;5035695;28;20404;-61
2022/04/11 11:36:32;;;;;;;4.65;1.38;;;;;;;19.16;47.03;101574.81;5035866;28;20029;-61
2022/04/11 11:38:57;;;;;;;2.63;1.50;;;;;;;19.15;46.80;101581.06;5034895;28;20470;-62
2022/04/11 11:41:27;;;;;;;4.68;1.65;;;;;;;19.19;46.95;101577.34;5046614;28;20033;-60
2022/04/11 11:43:55;;;;;;;4.40;2.35;;;;;;;19.19;46.75;101572.03;5055758;28;20112;-62
2022/04/11 11:46:20;;;;;;;2.88;1.75;;;;;;;19.22;47.03;101570.22;5055049;28;20029;-61
2022/04/11 11:48:45;;;;;;;4.80;1.85;;;;;;;19.19;46.81;101572.03;5038493;28;20323;-64
2022/04/11 11:51:11;;;;;;;4.07;2.05;;;;;;;19.23;47.82;101574.59;5055564;28;20036;-58
2022/04/11 11:53:41;;;;;;;4.60;1.92;;;;;;;19.29;47.09;101566.41;5037875;28;20035;-58
2022/04/11 11:56:08;;;;;;;3.67;1.98;;;;;;;19.24;46.86;101560.41;5054724;28;20385;-59
2022/04/11 11:58:37;;;;;;;5.22;1.73;;;;;;;19.24;46.69;101563.91;5054538;28;20021;-60
2022/04/11 12:01:09;;;;;;;4.43;1.80;;;;;;;19.26;47.30;101563.88;5054583;28;20086;-61
2022/04/11 12:06:25;;;;;;;4.65;1.90;;;;;;;19.25;47.08;101570.13;5055117;28;20040;-63
2022/04/11 12:08:55;;;;;;;3.55;1.58;;;;;;;19.27;47.43;101562.94;5054291;28;20081;-59
2022/04/11 12:11:24;;;;;;;4.28;1.67;;;;;;;19.28;46.69;101554.09;5038580;28;20046;-58
2022/04/11 12:14:05;;;;;;;4.75;1.73;;;;;;;19.28;46.93;101564.69;5054315;28;20049;-57
2022/04/11 12:16:32;;;;;;;3.28;1.58;;;;;;;19.29;47.00;101561.09;5054335;28;20024;-58
2022/04/11 12:18:58;;;;;;;3.90;1.60;;;;;;;19.27;47.10;101560.28;5053934;28;20040;-55
2022/04/11 12:21:30;;;;;;;3.80;1.75;;;;;;;19.25;46.92;101555.06;5053934;28;20033;-56
2022/04/11 12:23:55;;;;;;;3.88;1.90;;;;;;;19.29;47.57;101569.06;5055225;28;20029;-54
2022/04/11 12:26:25;;;;;;;7.45;2.10;;;;;;;19.33;46.72;101562.72;5054841;28;20031;-59
2022/04/11 12:28:51;;;;;;;4.13;1.60;;;;;;;19.29;47.09;101555.81;5054458;28;20108;-59
2022/04/11 12:31:18;;;;;;;6.20;1.30;;;;;;;19.31;47.18;101559.25;5054075;28;20027;-57
2022/04/11 12:33:46;;;;;;;4.35;1.83;;;;;;;19.32;47.01;101553.06;5054720;28;20029;-55
2022/04/11 12:36:16;;;;;;;2.58;1.25;;;;;;;19.31;47.51;101553.97;5037589;28;20024;-56
2022/04/11 12:38:54;;;;;;;4.10;1.65;;;;;;;19.30;47.31;101544.28;5054792;28;20016;-54
2022/04/11 12:41:27;;;;;;;2.25;1.40;;;;;;;19.31;47.53;101538.91;5038410;28;20025;-55
2022/04/11 12:44:21;;;;;;;4.03;1.70;;;;;;;19.27;47.29;101533.78;5054865;28;20028;-55
2022/04/11 12:47:07;;;;;;;3.28;1.52;;;;;;;19.30;47.77;101536.34;5053906;28;20442;-58
2022/04/11 12:49:51;;;;;;;3.00;1.60;;;;;;;19.32;47.29;101529.19;5054422;28;20048;-58
2022/04/11 12:52:27;;;;;;;3.47;1.48;;;;;;;19.32;47.21;101530.06;5053654;28;20064;-59
2022/04/11 12:55:03;;;;;;;1.95;1.38;;;;;;;19.38;47.15;101519.19;5055045;28;20021;-55
2022/04/11 12:57:31;;;;;;;3.28;1.42;;;;;;;19.33;47.14;101521.16;5053682;28;20025;-52
2022/04/11 12:59:56;;;;;;;4.45;1.55;;;;;;;19.39;47.13;101531.56;5053800;28;20036;-51
2022/04/11 13:02:26;;;;;;;1.88;1.33;;;;;;;19.43;46.79;101526.13;5053677;28;20029;-53
2022/04/11 13:04:52;;;;;;;3.38;1.50;;;;;;;19.42;46.81;101519.09;5054882;28;20334;-51
2022/04/11 13:07:27;;;;;;;3.80;1.55;;;;;;;19.45;46.95;101522.50;5053648;28;20037;-50
2022/04/11 13:09:55;;;;;;;2.55;1.17;;;;;;;19.42;47.14;101519.97;5054419;28;20059;-53
2022/04/11 13:12:20;;;;;;;3.70;1.10;;;;;;;19.43;46.81;101521.69;5046715;28;20030;-53
2022/04/11 13:14:49;;;;;;;1.83;1.40;;;;;;;19.41;47.21;101510.28;5042276;28;20071;-51
2022/04/11 13:19:59;;;;;;;4.30;1.70;;;;;;;19.44;46.70;101510.16;5034423;28;20044;-55
2022/04/11 13:22:24;;;;;;;5.03;1.75;;;;;;;19.44;46.85;101507.50;5033561;28;20013;-55
2022/04/11 13:24:50;;;;;;;2.72;1.40;;;;;;;19.36;46.88;101510.47;5033611;28;20431;-56
2022/04/11 13:27:21;;;;;;;3.03;1.35;;;;;;;19.36;47.11;101506.94;5034383;28;20418;-55
2022/04/11 13:29:50;;;;;;;3.75;1.35;;;;;;;19.33;47.27;101494.66;5033486;28;20036;-53
2022/04/11 13:32:15;;;;;;;2.63;1.50;;;;;;;19.33;47.37;101489.34;5034094;28;20053;-54
2022/04/11 13:34:46;;;;;;;2.78;1.25;;;;;;;19.37;46.83;101485.66;5034358;28;20053;-57
2022/04/11 13:37:14;;;;;;;3.63;1.88;;;;;;;19.42;46.52;101490.78;5034290;28;20447;-56
2022/04/11 13:39:39;;;;;;;3.53;1.70;;;;;;;19.41;46.37;101491.72;5036498;28;20470;-56
2022/04/11 13:42:07;;;;;;;3.80;1.10;;;;;;;19.52;46.61;101481.53;5048804;28;20033;-56
2022/04/11 13:44:32;;;;;;;3.88;1.35;;;;;;;19.57;46.47;101476.94;5057972;28;20047;-58
2022/04/11 13:46:57;;;;;;;2.60;1.02;;;;;;;19.58;46.62;101478.66;5040439;28;20029;-55
2022/04/11 13:49:23;;;;;;;2.83;1.50;;;;;;;19.58;46.74;101473.38;5057081;28;20035;-57
2022/04/11 13:51:48;;;;;;;2.10;1.38;;;;;;;19.54;46.65;101469.09;5056719;28;20025;-59
2022/04/11 13:54:14;;;;;;;4.82;1.40;;;;;;;19.55;46.71;101462.88;5057844;28;20029;-56
2022/04/11 13:56:42;;;;;;;3.45;1.52;;;;;;;19.59;46.84;101469.78;5057680;28;20124;-59
2022/04/11 13:59:12;;;;;;;5.30;1.23;;;;;;;19.53;46.94;101464.72;5056766;28;20017;-59
2022/04/11 14:01:38;;;;;;;3.05;1.30;;;;;;;19.56;46.90;101461.94;5057653;28;20438;-59
2022/04/11 14:04:04;;;;;;;3.10;1.30;;;;;;;19.59;46.71;101464.47;5057008;28;20036;-58
2022/04/11 14:06:29;;;;;;;2.33;1.50;;;;;;;19.54;47.07;101458.47;5040432;28;20029;-56
2022/04/11 14:08:54;;;;;;;3.15;1.20;;;;;;;19.61;47.00;101461.75;5057591;28;20343;-62
2022/04/11 14:11:22;;;;;;;3.40;1.15;;;;;;;19.69;46.85;101453.53;5057458;28;20029;-61
2022/04/11 14:13:47;;;;;;;2.67;1.45;;;;;;;19.69;46.58;101454.41;5057186;28;20049;-57
2022/04/11 14:16:13;;;;;;;2.58;1.20;;;;;;;19.67;46.98;101450.91;5057411;28;20548;-57
2022/04/11 14:18:40;;;;;;;2.55;1.10;;;;;;;19.70;46.88;101449.97;5057220;28;20058;-57
2022/04/11 14:21:08;;;;;;;5.03;1.40;;;;;;;19.75;47.05;101453.28;5057137;28;20044;-54
2022/04/11 14:23:38;;;;;;;2.63;1.30;;;;;;;19.79;47.00;101444.28;5040057;28;20359;-53
2022/04/11 14:26:06;;;;;;;2.28;1.23;;;;;;;19.86;46.64;101444.91;5057334;28;20086;-50
2022/04/11 14:28:31;;;;;;;3.25;1.40;;;;;;;19.99;46.89;101447.00;5057079;28;20021;-56
2022/04/11 14:30:56;;;;;;;13.13;1.52;;;;;;;20.03;46.54;101447.72;5056284;28;20338;-56
2022/04/11 14:33:22;;;;;;;4.40;1.25;;;;;;;20.03;46.84;101435.31;5056859;28;20020;-56
2022/04/11 14:35:50;;;;;;;6.38;1.58;;;;;;;20.03;46.67;101443.25;5056140;28;20351;-55
2022/04/11 14:38:17;;;;;;;3.33;1.20;;;;;;;20.02;46.96;101438.91;5056984;28;20056;-57
2022/04/11 14:40:43;;;;;;;1.75;1.08;;;;;;;20.03;46.89;101440.63;5057221;28;20147;-55
2022/04/11 14:43:08;;;;;;;4.40;1.15;;;;;;;19.99;47.34;101433.72;5055921;28;20426;-54
2022/04/11 14:45:36;;;;;;;3.97;1.15;;;;;;;19.99;47.30;101439.03;5056153;28;20515;-55
2022/04/11 14:48:02;;;;;;;4.93;1.33;;;;;;;20.00;47.45;101430.13;5056730;28;20056;-50
2022/04/11 14:50:27;;;;;;;1.90;1.08;;;;;;;20.00;47.21;101438.09;5056555;28;20423;-54
2022/04/11 14:52:52;;;;;;;1.67;1.10;;;;;;;20.02;47.44;101435.38;5056471;28;20324;-52
2022/04/11 14:55:18;;;;;;;2.28;1.40;;;;;;;20.03;47.38;101424.69;5056644;28;20037;-55
2022/04/11 14:57:45;;;;;;;3.08;1.20;;;;;;;20.08;47.40;101428.94;5056317;28;20055;-55
2022/04/11 15:00:15;;;;;;;4.40;1.30;;;;;;;20.13;47.35;101426.97;5055594;28;20031;-52
2022/04/11 15:02:41;;;;;;;;;;;;;;;20.12;47.33;101426.09;5057020;28;20081;-53
2022/04/11 15:05:09;;;;;;;2.83;1.03;;;;;;;20.09;47.57;101426.25;5056469;28;20018;-53
2022/04/11 15:07:34;;;;;;;2.90;1.27;;;;;;;20.01;47.95;101426.53;5055587;28;20270;-56
2022/04/11 15:10:02;;;;;;;3.22;0.93;;;;;;;19.99;47.93;101425.75;5056488;28;20035;-55
2022/04/11 15:12:28;;;;;;;3.17;1.33;;;;;;;20.01;47.49;101428.34;5056222;28;20021;-62
2022/04/11 15:14:53;;;;;;;1.88;1.05;;;;;;;19.93;47.27;101430.47;5055539;28;20103;-64
2022/04/11 15:17:21;;;;;;;3.45;1.20;;;;;;;19.83;44.99;101424.66;5056217;28;20029;-60
2022/04/11 15:19:49;;;;;;;4.97;1.70;;;;;;;19.75;44.69;101416.16;5038589;28;20043;-59
2022/04/11 15:22:14;;;;;;;6.35;1.77;;;;;;;19.70;43.25;101418.13;5055198;28;20036;-58
2022/04/11 15:24:39;;;;;;;4.20;1.20;;;;;;;19.66;43.78;101417.34;5056188;28;20025;-56
2022/04/11 15:27:05;;;;;;;2.85;1.50;;;;;;;19.64;43.17;101419.19;5056213;28;20469;-62
2022/04/11 15:29:31;;;;;;;4.65;1.70;;;;;;;19.60;42.07;101415.81;5055948;28;20405;-58
2022/04/11 15:31:59;;;;;;;2.28;1.40;;;;;;;19.52;42.09;101412.59;5055898;28;20415;-51
2022/04/11 15:34:27;;;;;;;3.88;1.50;;;;;;;19.49;42.11;101415.38;5038874;28;20039;-52
2022/04/11 15:36:55;;;;;;;3.40;1.40;;;;;;;19.46;41.72;101410.19;5055868;28;20040;-55
2022/04/11 15:39:20;;;;;;;2.95;1.60;;;;;;;19.46;41.31;101414.66;5055731;28;20024;-58
2022/04/11 15:41:45;;;;;;;2.85;1.50;;;;;;;19.45;41.76;101405.81;5055742;28;20116;-56
2022/04/11 15:44:11;;;;;;;4.68;1.77;;;;;;;19.42;41.23;101413.88;5054692;28;20025;-59
2022/04/11 15:46:38;;;;;;;3.08;1.65;;;;;;;19.41;40.98;101406.88;5055605;28;20035;-57
2022/04/11 15:49:04;;;;;;;3.03;1.48;;;;;;;19.36;41.51;101400.84;5054785;28;20035;-56
2022/04/11 15:51:31;;;;;;;2.35;1.40;;;;;;;19.38;41.19;101414.94;5055409;28;20025;-57
2022/04/11 15:53:57;;;;;;;2.85;1.40;;;;;;;19.36;40.71;101407.06;5055390;28;20044;-59
2022/04/11 15:56:25;;;;;;;3.28;1.55;;;;;;;19.35;40.85;101397.34;5055455;28;20435;-57
2022/04/11 15:58:53;;;;;;;2.55;1.77;;;;;;;19.34;40.25;101405.38;5054443;28;20044;-57
2022/04/11 16:01:19;;;;;;;2.97;1.60;;;;;;;19.32;40.46;101397.47;5054695;28;20036;-57
2022/04/11 16:03:44;;;;;;;4.50;1.88;;;;;;;19.29;40.41;101402.03;5054535;28;20017;-61
2022/04/11 16:06:12;;;;;;;2.83;1.83;;;;;;;19.28;40.15;101401.16;5054619;28;20025;-60
2022/04/11 16:08:37;;;;;;;2.80;1.58;;;;;;;19.26;40.15;101394.19;5055188;28;20029;-58
2022/04/11 16:11:06;;;;;;;3.40;1.30;;;;;;;19.25;39.99;101400.44;5055136;28;20035;-54
2022/04/11 16:13:35;;;;;;;2.30;1.45;;;;;;;19.23;39.50;101396.97;5055005;28;20465;-65
2022/04/11 16:16:03;;;;;;;2.42;1.45;;;;;;;19.19;39.92;101398.88;5055069;28;20094;-57
2022/04/11 16:18:31;;;;;;;3.95;1.60;;;;;;;19.20;39.45;101397.97;5055083;28;20021;-55
2022/04/11 16:20:56;;;;;;;3.53;1.60;;;;;;;19.20;39.61;101411.22;5054011;28;20025;-56
2022/04/11 16:23:22;;;;;;;4.13;1.50;;;;;;;19.18;40.15;101402.47;5054024;28;20051;-54
2022/04/11 16:25:49;;;;;;;2.40;1.17;;;;;;;19.25;41.46;101395.16;5054221;28;20035;-54
2022/04/11 16:28:18;;;;;;;3.83;1.40;;;;;;;19.32;41.76;101399.28;5054882;28;20029;-55
2022/04/11 16:30:43;;;;;;;2.28;1.45;;;;;;;19.33;42.01;101393.91;5054903;28;20033;-53
2022/04/11 16:33:08;;;;;;;2.80;1.55;;;;;;;19.32;41.81;101396.63;5054757;28;20330;-58
2022/04/11 16:35:36;;;;;;;2.60;1.40;;;;;;;19.34;41.78;101394.78;5054917;28;20033;-53
2022/04/11 16:38:01;;;;;;;4.85;1.30;;;;;;;19.39;42.15;101396.31;5054868;28;20029;-54
2022/04/11 16:40:31;;;;;;;3.17;1.27;;;;;;;19.46;42.09;101391.63;5054731;28;20033;-53
2022/04/11 16:42:59;;;;;;;2.63;1.40;;;;;;;19.44;42.46;101398.78;5053761;28;20025;-59
2022/04/11 16:45:24;;;;;;;3.92;1.33;;;;;;;19.42;42.66;101395.31;5054704;28;20040;-59
2022/04/11 16:47:51;;;;;;;1.60;1.25;;;;;;;19.38;43.11;101396.38;5054641;28;20029;-58
2022/04/11 16:50:16;;;;;;;4.88;1.73;;;;;;;19.35;42.65;101401.81;5054713;28;20039;-54
2022/04/11 16:52:43;;;;;;;2.45;1.15;;;;;;;19.33;42.68;101401.84;5054513;28;20025;-55
2022/04/11 16:55:09;;;;;;;4.22;1.70;;;;;;;19.32;42.50;101402.78;5053796;28;20029;-57
2022/04/11 16:57:34;;;;;;;2.45;1.45;;;;;;;19.32;42.67;101399.28;5054519;28;20040;-56
2022/04/11 17:00:02;;;;;;;5.80;1.33;;;;;;;19.31;43.11;101395.75;5054199;28;20036;-53
2022/04/11 17:02:28;;;;;;;4.25;1.50;;;;;;;19.37;43.13;101399.97;5046480;28;20029;-53
2022/04/11 17:04:58;;;;;;;3.13;1.27;;;;;;;19.34;43.29;101395.63;5050061;28;20146;-52
2022/04/11 17:07:24;;;;;;;3.45;1.40;;;;;;;19.32;43.35;101402.78;5033139;28;20025;-54
2022/04/11 17:09:50;;;;;;;3.00;1.90;;;;;;;19.32;43.21;101393.97;5033696;28;20033;-53
2022/04/11 17:12:15;;;;;;;3.75;1.70;;;;;;;19.32;43.21;101404.59;5034059;28;20025;-51
2022/04/11 17:14:41;;;;;;;4.10;1.60;;;;;;;19.33;43.52;101415.09;5036314;28;20030;-54
2022/04/11 17:19:52;;;;;;;2.65;1.42;;;;;;;19.32;43.73;101413.41;5037485;28;20064;-56
2022/04/11 17:22:18;;;;;;;2.20;1.15;;;;;;;19.31;43.96;101408.13;5053973;28;20025;-55
2022/04/11 17:24:46;;;;;;;3.03;1.35;;;;;;;19.38;44.10;101412.28;5038118;28;20032;-55
2022/04/11 17:27:13;;;;;;;3.88;1.38;;;;;;;19.38;44.03;101409.63;5038261;28;20439;-54
2022/04/11 17:29:41;;;;;;;1.77;1.00;;;;;;;19.39;44.33;101409.56;5037637;28;20056;-55
2022/04/11 17:32:06;;;;;;;5.72;1.40;;;;;;;19.43;44.74;101415.59;5038238;28;20025;-56
2022/04/11 17:34:35;;;;;;;3.35;1.35;;;;;;;19.42;45.71;101416.53;5038023;28;20033;-55
2022/04/11 17:37:01;;;;;;;2.75;1.40;;;;;;;19.47;44.94;101417.22;5037960;28;20138;-58
2022/04/11 17:39:26;;;;;;;4.15;1.33;;;;;;;19.47;45.26;101419.88;5053711;28;20029;-58
2022/04/11 17:41:51;;;;;;;5.72;1.40;;;;;;;19.44;45.91;101421.78;5038104;28;20035;-58
2022/04/11 17:44:21;;;;;;;2.72;1.30;;;;;;;19.44;45.42;101427.09;5053607;28;20033;-56
2022/04/11 17:46:49;;;;;;;;;;;;;;;19.41;46.24;101433.38;5038295;28;20147;-58
2022/04/11 17:49:14;;;;;;;3.88;1.50;;;;;;;19.46;46.21;101428.75;5049110;28;20323;-54
2022/04/11 17:51:40;;;;;;;6.97;1.45;;;;;;;19.44;46.43;101435.91;5056444;28;20113;-60
2022/04/11 17:54:05;;;;;;;6.15;1.55;;;;;;;19.40;46.47;101439.59;5057405;28;20332;-57
2022/04/11 17:56:31;;;;;;;2.90;1.20;;;;;;;19.38;46.16;101436.13;5057572;28;20017;-56
2022/04/11 17:58:56;;;;;;;9.70;2.10;;;;;;;19.35;46.52;101430.97;5039682;28;20021;-53
2022/04/11 18:01:21;;;;;;;2.88;1.85;;;;;;;19.33;46.08;101432.81;5053636;28;20029;-54
2022/04/11 18:03:47;;;;;;;3.03;1.63;;;;;;;19.32;46.40;101434.59;5057646;28;20028;-58
2022/04/11 18:06:12;;;;;;;3.10;1.40;;;;;;;19.41;46.79;101441.34;5056779;28;20039;-56
2022/04/11 18:08:38;;;;;;;5.28;2.08;;;;;;;19.39;46.37;101436.09;5056638;28;20028;-54
2022/04/11 18:11:04;;;;;;;3.95;1.40;;;;;;;19.46;46.39;101436.72;5056381;28;20074;-54
2022/04/11 18:13:30;;;;;;;4.65;1.60;;;;;;;19.43;46.70;101442.13;5057309;28;20523;-56
2022/04/11 18:15:55;;;;;;;5.30;1.48;;;;;;;19.43;46.29;101439.47;5056364;28;20029;-55
2022/04/11 18:18:23;;;;;;;7.18;1.60;;;;;;;19.37;46.55;101442.38;5056448;28;20043;-58
2022/04/11 18:20:48;;;;;;;2.63;1.40;;;;;;;19.39;47.80;101440.53;5057195;28;20123;-60
2022/04/11 18:23:18;;;;;;;5.20;1.10;;;;;;;19.36;46.78;101449.47;5055953;28;20458;-60
2022/04/11 18:25:46;;;;;;;9.52;1.90;;;;;;;19.32;47.16;101447.84;5056532;28;20053;-60
2022/04/11 18:33:41;;;;;;;2.78;1.38;;;;;;;19.32;46.59;101444.34;5056077;28;20078;-56
2022/04/11 18:36:07;;;;;;;4.80;1.20;;;;;;;19.33;46.91;101435.47;5054848;28;20397;-55
2022/04/11 18:38:33;;;;;;;4.53;1.80;;;;;;;19.36;46.91;101445.94;5055186;28;20025;-51
2022/04/11 18:41:03;;;;;;;2.88;1.40;;;;;;;19.35;47.18;101444.22;5055120;28;20032;-52
2022/04/11 18:43:36;;;;;;;3.60;1.50;;;;;;;19.36;47.16;101445.94;5055304;28;20017;-55
2022/04/11 18:46:07;;;;;;;3.78;1.50;;;;;;;19.33;47.38;101451.38;5057929;28;20045;-56
2022/04/11 18:48:37;;;;;;;3.35;1.40;;;;;;;19.30;47.08;101444.41;5040510;28;20112;-57
2022/04/11 18:51:03;;;;;;;4.30;2.00;;;;;;;19.30;47.20;101446.19;5056913;28;20029;-57
2022/04/11 18:53:29;;;;;;;5.38;1.48;;;;;;;19.29;47.15;101457.69;5056824;28;20366;-57
2022/04/11 18:55:57;;;;;;;3.92;1.40;;;;;;;19.33;46.30;101448.72;5058985;28;20086;-56
2022/04/11 18:58:22;;;;;;;2.45;1.35;;;;;;;19.36;46.54;101453.88;5056666;28;20082;-59
2022/04/11 19:00:47;;;;;;;5.55;1.85;;;;;;;19.40;46.80;101452.84;5055994;28;20021;-56
2022/04/11 19:03:16;;;;;;;6.15;1.52;;;;;;;19.50;46.96;101456.91;5055620;28;20025;-56
2022/04/11 19:05:42;;;;;;;5.40;1.70;;;;;;;19.42;46.92;101458.13;5056413;28;20036;-56
2022/04/11 19:08:10;;;;;;;10.88;6.68;;;;;;;19.27;47.54;101467.50;5056409;28;20025;-60
2022/04/11 19:10:36;;;;;;;7.53;5.43;;;;;;;19.12;42.67;101467.16;5056354;28;20036;-57
2022/04/11 19:13:01;;;;;;;24.85;19.15;;;;;;;18.97;39.41;101470.41;5056246;28;20094;-61
2022/04/11 19:15:29;;;;;;;23.60;16.05;;;;;;;19.04;42.01;101477.19;5055383;28;20033;-57
2022/04/11 19:17:54;;;;;;;18.25;12.77;;;;;;;18.97;41.96;101473.03;5056048;28;20033;-57
2022/04/11 19:20:19;;;;;;;19.83;14.95;;;;;;;19.03;41.31;101470.16;5056039;28;20035;-59
2022/04/11 19:22:45;;;;;;;25.85;17.77;;;;;;;18.93;41.42;101474.06;5056165;28;20466;-61
2022/04/11 19:25:15;;;;;;;17.58;10.85;;;;;;;18.81;37.58;101479.81;5056144;28;20025;-63
2022/04/11 19:27:42;;;;;;;17.63;10.95;;;;;;;18.71;36.19;101476.59;5056143;28;20096;-61
2022/04/11 19:30:14;;;;;;;21.02;13.38;;;;;;;18.66;35.95;101481.16;5055832;28;20102;-62
2022/04/11 19:32:40;;;;;;;23.40;14.35;;;;;;;18.60;35.69;101478.75;5039612;28;20035;-62
2022/04/11 19:35:05;;;;;;;18.63;11.45;;;;;;;18.56;35.46;101480.63;5055110;28;20112;-60
2022/04/11 19:37:36;;;;;;;23.20;13.73;;;;;;;18.53;35.72;101480.75;5055136;28;20480;-60
2022/04/11 19:40:03;;;;;;;18.02;10.20;;;;;;;18.49;35.39;101489.72;5056094;28;20052;-62
2022/04/11 19:42:29;;;;;;;11.35;6.93;;;;;;;18.48;35.29;101494.16;5054911;28;20017;-62
2022/04/11 19:44:54;;;;;;;15.50;7.75;;;;;;;18.51;34.51;101495.81;5055793;28;20021;-60
2022/04/11 19:49:47;;;;;;;12.60;7.28;;;;;;;18.50;34.89;101494.09;5055652;28;20446;-59
2022/04/11 19:50:05;;;;;;;8.98;5.22;;;;;;;18.46;34.91;101497.78;5055495;28;20039;-58
2022/04/11 19:52:30;;;;;;;12.55;8.00;;;;;;;18.50;38.56;101499.41;5054512;28;20025;-60
2022/04/11 19:54:58;;;;;;;19.50;11.52;;;;;;;18.43;35.62;101500.53;5055756;28;20043;-62
2022/04/11 19:57:26;;;;;;;10.52;6.28;;;;;;;18.41;34.26;101502.34;5054426;28;20067;-60
2022/04/11 19:59:53;;;;;;;10.30;6.72;;;;;;;18.37;34.20;101500.72;5054586;28;20021;-60
2022/04/11 20:02:19;;;;;;;12.48;6.80;;;;;;;18.31;34.27;101497.38;5054472;28;20419;-65
2022/04/11 20:04:46;;;;;;;8.40;6.00;;;;;;;18.31;33.96;101497.38;5054569;28;20120;-61
2022/04/11 20:07:12;;;;;;;19.65;11.48;;;;;;;18.45;38.78;101493.38;5054488;28;20032;-58
2022/04/11 20:09:44;;;;;;;19.52;10.23;;;;;;;18.63;38.47;101492.75;5055068;28;20025;-58
2022/04/11 20:12:10;;;;;;;21.60;11.18;;;;;;;18.70;38.65;101483.66;5055284;28;20021;-59
2022/04/11 20:14:37;;;;;;;18.42;10.88;;;;;;;18.71;38.90;101485.41;5053337;28;20039;-59
2022/04/11 20:17:03;;;;;;;17.00;9.48;;;;;;;18.80;38.65;101478.97;5055144;28;20052;-55
2022/04/11 20:19:28;;;;;;;17.60;9.77;;;;;;;18.84;39.21;101480.56;5055494;28;20463;-58
2022/04/11 20:21:54;;;;;;;17.70;9.95;;;;;;;18.83;39.37;101483.28;5053827;28;20029;-60
